Time;durP1;ratioP1;P1;durP2;ratioP2;P2;SDS_P1;SDS_P2;PMS_P1;PMS_P2;Temp;Humidity;BMP_temperature;BMP_pressure;BME280_temperature;BME280_humidity;BME280_pressure;Samples;Min_cycle;Max_cycle;Signal;HPM_P1;HPM_P2
2022/07/01 00:00:10;;;;;;;2.45;1.30;;;;;;;19.38;76.66;96708.16;6167935;23;20022;-78
2022/07/01 00:02:38;;;;;;;1.50;1.05;;;;;;;19.37;74.84;96688.00;6171853;23;20017;-79
2022/07/01 00:05:06;;;;;;;2.55;1.02;;;;;;;19.30;74.05;96678.38;6172953;23;20029;-78
2022/07/01 00:07:34;;;;;;;1.70;1.30;;;;;;;19.23;73.40;96672.41;6175485;23;20053;-79
2022/07/01 00:10:03;;;;;;;3.10;1.42;;;;;;;19.18;73.69;96667.03;6172147;23;20029;-79
2022/07/01 00:12:31;;;;;;;2.10;1.67;;;;;;;19.15;75.60;96662.19;6172995;23;20497;-79
2022/07/01 00:14:59;;;;;;;3.85;1.67;;;;;;;19.15;77.41;96664.84;6174203;23;20044;-79
2022/07/01 00:17:26;;;;;;;4.68;2.03;;;;;;;19.16;77.48;96652.44;6175148;23;20022;-78
2022/07/01 00:19:54;;;;;;;1.10;0.93;;;;;;;19.14;74.68;96647.38;6175895;23;20454;-79
2022/07/01 00:22:22;;;;;;;0.68;0.68;;;;;;;19.04;72.93;96639.25;6174194;23;20029;-79
2022/07/01 00:24:49;;;;;;;2.28;1.13;;;;;;;18.98;73.87;96622.50;6176152;23;20026;-79
2022/07/01 00:27:19;;;;;;;1.15;0.82;;;;;;;18.85;72.34;96591.84;6175128;23;20017;-79
2022/07/01 00:29:46;;;;;;;3.08;1.00;;;;;;;18.78;72.88;96574.50;6177855;23;20028;-79
2022/07/01 00:32:14;;;;;;;2.25;1.33;;;;;;;18.66;72.81;96562.09;6174804;23;20049;-80
2022/07/01 00:34:42;;;;;;;9.35;2.38;;;;;;;18.57;75.65;96555.59;6175003;23;20021;-78
2022/07/01 00:37:09;;;;;;;3.30;1.35;;;;;;;18.50;75.08;96557.56;6172329;23;20021;-78
2022/07/01 00:39:37;;;;;;;2.88;1.27;;;;;;;18.46;76.08;96569.63;6171702;23;20021;-79
2022/07/01 00:42:06;;;;;;;2.15;1.00;;;;;;;18.45;77.81;96579.38;6171454;23;20021;-78
2022/07/01 00:44:35;;;;;;;2.53;1.52;;;;;;;18.44;77.79;96577.78;6171457;23;20025;-78
2022/07/01 00:47:05;;;;;;;2.38;1.00;;;;;;;18.42;76.59;96585.13;6170989;23;20022;-78
2022/07/01 00:49:33;;;;;;;1.90;1.33;;;;;;;18.39;77.59;96572.41;6171587;23;20033;-79
2022/07/01 00:52:01;;;;;;;2.53;1.30;;;;;;;18.36;77.93;96558.84;6172089;23;20026;-79
2022/07/01 00:54:31;;;;;;;1.75;0.60;;;;;;;18.25;74.93;96571.03;6170940;23;20026;-78
2022/07/01 00:56:59;;;;;;;2.67;0.90;;;;;;;18.18;76.20;96576.41;6170414;23;20524;-78
2022/07/01 00:59:28;;;;;;;1.00;0.50;;;;;;;18.12;75.59;96580.78;6170080;23;20017;-79
2022/07/01 01:01:57;;;;;;;5.07;1.95;;;;;;;18.20;81.44;96589.41;6173513;23;20017;-79
2022/07/01 01:04:25;;;;;;;1.88;0.80;;;;;;;18.16;77.38;96593.53;6172984;23;20022;-79
2022/07/01 01:06:52;;;;;;;0.95;0.68;;;;;;;18.07;75.80;96604.41;6173674;23;20084;-78
2022/07/01 01:09:21;;;;;;;1.48;0.80;;;;;;;18.05;77.36;96610.97;6174395;23;20049;-78
2022/07/01 01:11:50;;;;;;;6.93;3.20;;;;;;;18.14;83.11;96608.78;6172703;23;20021;-78
2022/07/01 01:14:17;;;;;;;4.15;1.95;;;;;;;18.18;83.74;96600.19;6171490;23;20022;-79
2022/07/01 01:16:45;;;;;;;6.47;2.97;;;;;;;18.23;85.00;96612.69;6172606;23;20022;-78
2022/07/01 01:19:14;;;;;;;5.25;2.42;;;;;;;18.21;83.77;96617.38;6171811;23;20032;-78
2022/07/01 01:21:43;;;;;;;1.70;1.00;;;;;;;18.16;79.07;96617.28;6171720;23;20048;-78
2022/07/01 01:24:11;;;;;;;2.40;0.93;;;;;;;18.18;81.96;96625.78;6170320;23;20022;-79
2022/07/01 01:26:39;;;;;;;6.70;1.98;;;;;;;18.26;83.79;96622.81;6171753;23;20021;-78
2022/07/01 01:29:08;;;;;;;1.35;0.70;;;;;;;18.25;79.92;96627.25;6171646;23;20024;-78
2022/07/01 01:31:36;;;;;;;7.25;3.08;;;;;;;18.29;84.22;96638.19;6174783;23;20049;-78
2022/07/01 01:34:04;;;;;;;1.80;1.40;;;;;;;18.30;84.60;96647.69;6172016;23;20045;-79
2022/07/01 01:36:32;;;;;;;5.00;2.22;;;;;;;18.34;86.32;96627.72;6170736;23;20013;-79
2022/07/01 01:39:04;;;;;;;1.95;1.15;;;;;;;18.35;84.50;96629.34;6171038;23;20018;-79
2022/07/01 01:41:32;;;;;;;4.57;1.25;;;;;;;18.34;82.44;96627.72;6172598;23;20021;-78
2022/07/01 01:44:00;;;;;;;5.00;1.80;;;;;;;18.38;84.35;96623.59;6171069;23;20024;-78
2022/07/01 01:46:28;;;;;;;5.00;1.70;;;;;;;18.42;86.28;96627.38;6170938;23;20021;-78
2022/07/01 01:48:56;;;;;;;3.72;1.73;;;;;;;18.46;88.15;96628.53;6171689;23;20025;-79
2022/07/01 01:51:24;;;;;;;2.60;1.55;;;;;;;18.47;87.93;96616.91;6172442;23;20026;-79
2022/07/01 01:53:52;;;;;;;4.82;1.75;;;;;;;18.48;87.97;96612.47;6171761;23;20018;-79
2022/07/01 01:56:21;;;;;;;2.08;0.75;;;;;;;18.44;85.61;96617.38;6172742;23;20018;-79
2022/07/01 01:58:49;;;;;;;5.13;2.30;;;;;;;18.48;87.65;96615.91;6173606;23;20022;-78
2022/07/01 02:01:19;;;;;;;6.65;2.15;;;;;;;18.49;87.86;96606.94;6172104;23;20025;-79
2022/07/01 02:03:48;;;;;;;1.30;0.80;;;;;;;18.38;81.53;96614.88;6169775;23;20014;-78
2022/07/01 02:06:18;;;;;;;4.88;2.20;;;;;;;18.41;86.69;96617.88;6169014;23;20017;-79
2022/07/01 02:08:46;;;;;;;4.78;1.70;;;;;;;18.43;87.17;96618.44;6170891;23;20021;-79
2022/07/01 02:11:14;;;;;;;2.03;1.05;;;;;;;18.39;84.84;96622.56;6170679;23;20049;-79
2022/07/01 02:13:44;;;;;;;4.72;2.22;;;;;;;18.43;88.36;96633.47;6171499;23;20080;-79
2022/07/01 02:16:12;;;;;;;3.05;0.85;;;;;;;18.39;86.66;96643.69;6170677;23;20022;-78
2022/07/01 02:18:40;;;;;;;0.75;0.60;;;;;;;18.38;86.29;96644.72;6171194;23;20450;-78
2022/07/01 02:21:08;;;;;;;0.55;0.55;;;;;;;18.33;84.67;96637.50;6171422;23;20028;-78
2022/07/01 02:23:37;;;;;;;1.17;0.60;;;;;;;18.31;83.37;96626.34;6171917;23;20032;-78
2022/07/01 02:26:05;;;;;;;2.15;0.65;;;;;;;18.26;82.82;96606.97;6171584;23;20017;-79
2022/07/01 02:28:33;;;;;;;4.45;1.30;;;;;;;18.19;82.50;96600.97;6172547;23;20032;-79
2022/07/01 02:31:03;;;;;;;3.25;1.02;;;;;;;18.14;81.53;96620.16;6170664;23;20025;-79
2022/07/01 02:33:31;;;;;;;1.98;0.77;;;;;;;18.07;80.27;96625.53;6172240;23;20418;-79
2022/07/01 02:35:59;;;;;;;2.83;0.98;;;;;;;18.06;83.06;96639.78;6171492;23;20072;-79
2022/07/01 02:38:27;;;;;;;1.25;0.60;;;;;;;18.04;82.86;96644.47;6172227;23;20022;-78
2022/07/01 02:40:55;;;;;;;0.47;0.47;;;;;;;17.96;80.45;96659.84;6170965;23;20018;-79
2022/07/01 02:43:22;;;;;;;2.17;0.80;;;;;;;17.91;81.71;96663.97;6170231;23;20017;-78
2022/07/01 02:45:50;;;;;;;1.25;0.40;;;;;;;17.91;82.55;96673.72;6171611;23;20521;-78
2022/07/01 02:48:19;;;;;;;1.52;0.28;;;;;;;17.86;79.38;96676.22;6170181;23;20070;-79
2022/07/01 02:50:47;;;;;;;0.17;0.10;;;;;;;17.78;77.61;96676.53;6169764;23;20076;-78
2022/07/01 02:53:15;;;;;;;1.00;0.38;;;;;;;17.76;79.53;96681.22;6169453;23;20090;-78
2022/07/01 02:55:42;;;;;;;1.08;0.52;;;;;;;17.71;77.38;96689.81;6169638;23;20060;-78
2022/07/01 02:58:10;;;;;;;0.50;0.20;;;;;;;17.66;77.61;96687.03;6170477;23;20049;-78
2022/07/01 03:00:38;;;;;;;1.55;0.40;;;;;;;17.63;77.29;96685.66;6168774;23;20022;-78
2022/07/01 03:03:06;;;;;;;1.67;0.50;;;;;;;17.67;80.31;96676.25;6167982;23;20024;-78
2022/07/01 03:05:35;;;;;;;0.52;0.43;;;;;;;17.64;79.48;96668.78;6168034;23;20021;-78
2022/07/01 03:08:02;;;;;;;0.60;0.52;;;;;;;17.62;80.87;96670.88;6167431;23;20061;-78
2022/07/01 03:10:30;;;;;;;1.02;0.22;;;;;;;17.57;77.83;96670.72;6170429;23;20021;-78
2022/07/01 03:12:59;;;;;;;1.48;0.65;;;;;;;17.51;77.84;96668.97;6171051;23;20033;-78
2022/07/01 03:15:27;;;;;;;3.83;1.52;;;;;;;17.57;83.25;96675.19;6169177;23;20014;-78
2022/07/01 03:17:54;;;;;;;1.48;0.90;;;;;;;17.57;82.29;96676.00;6168766;23;20018;-78
2022/07/01 03:20:22;;;;;;;0.75;0.50;;;;;;;17.53;79.92;96688.00;6167876;23;20080;-78
2022/07/01 03:22:51;;;;;;;2.17;1.05;;;;;;;17.50;81.44;96696.38;6174484;23;20005;-78
2022/07/01 03:25:19;;;;;;;3.53;1.10;;;;;;;17.48;80.15;96706.34;6182325;23;20017;-78
2022/07/01 03:27:47;;;;;;;3.78;1.73;;;;;;;17.54;83.81;96705.47;6181910;23;20046;-79
2022/07/01 03:30:17;;;;;;;1.27;0.60;;;;;;;17.55;82.66;96701.78;6168922;23;20027;-79
2022/07/01 03:32:45;;;;;;;1.63;0.50;;;;;;;17.50;80.80;96704.28;6169401;23;20022;-78
2022/07/01 03:38:00;;;;;;;4.03;1.00;;;;;;;17.49;82.08;96700.88;6168431;23;20057;-78
2022/07/01 03:40:28;;;;;;;0.60;0.52;;;;;;;17.46;80.01;96703.13;6167488;23;20025;-79
2022/07/01 03:42:56;;;;;;;0.40;0.30;;;;;;;17.35;76.48;96711.78;6166531;23;20079;-78
2022/07/01 03:45:24;;;;;;;1.58;0.73;;;;;;;17.38;82.05;96706.06;6166624;23;20024;-78
2022/07/01 03:47:52;;;;;;;4.65;1.63;;;;;;;17.46;83.82;96718.94;6164939;23;20410;-78
2022/07/01 03:50:22;;;;;;;3.08;1.50;;;;;;;17.50;85.92;96725.41;6164854;23;20025;-78
2022/07/01 03:54:29;;;;;;;3.63;1.50;;;;;;;17.49;86.47;96729.88;6165275;23;20032;-78
2022/07/01 03:55:38;;;;;;;1.65;0.95;;;;;;;17.49;84.76;96736.97;6166607;23;20400;-78
2022/07/01 03:58:06;;;;;;;1.40;0.38;;;;;;;17.41;82.22;96737.28;6172304;23;20021;-79
2022/07/01 04:00:35;;;;;;;0.63;0.50;;;;;;;17.39;82.32;96741.97;6176317;23;20053;-78
2022/07/01 04:03:03;;;;;;;1.67;0.65;;;;;;;17.40;84.87;96748.84;6169938;23;20022;-78
2022/07/01 04:05:33;;;;;;;0.60;0.50;;;;;;;17.37;81.25;96754.56;6165829;23;20021;-78
2022/07/01 04:08:02;;;;;;;1.55;0.30;;;;;;;17.27;78.14;96763.81;6166455;23;20018;-78
2022/07/01 04:10:31;;;;;;;1.77;0.57;;;;;;;17.24;78.92;96769.50;6165541;23;20025;-78
2022/07/01 04:13:00;;;;;;;2.92;0.82;;;;;;;17.21;79.36;96767.31;6166559;23;20025;-78
2022/07/01 04:15:48;;;;;;;0.73;0.60;;;;;;;17.17;78.83;96784.59;6166440;23;20021;-79
2022/07/01 04:18:16;;;;;;;0.75;0.68;;;;;;;17.11;78.12;96782.81;6167292;23;20026;-78
2022/07/01 04:22:32;;;;;;;1.35;0.80;;;;;;;17.04;76.08;96785.53;6165144;23;20026;-79
2022/07/01 04:23:30;;;;;;;0.73;0.65;;;;;;;16.98;74.97;96785.59;6167304;23;20021;-79
2022/07/01 04:25:58;;;;;;;1.92;0.90;;;;;;;16.92;76.86;96791.72;6167806;23;20520;-78
2022/07/01 04:28:47;;;;;;;1.13;0.73;;;;;;;16.85;77.18;96791.78;6167110;23;20025;-78
2022/07/01 04:31:15;;;;;;;3.05;1.25;;;;;;;16.81;77.11;96787.97;6167211;23;20021;-79
2022/07/01 04:33:42;;;;;;;1.48;1.17;;;;;;;16.79;76.42;96792.63;6164812;23;20018;-78
2022/07/01 04:36:10;;;;;;;2.97;1.08;;;;;;;16.77;77.01;96794.66;6165081;23;20018;-78
2022/07/01 04:38:38;;;;;;;2.28;1.25;;;;;;;16.79;78.77;96796.06;6164163;23;20022;-78
2022/07/01 04:43:57;;;;;;;3.33;1.60;;;;;;;16.72;78.26;96803.22;6162133;23;20305;-78
2022/07/01 04:46:25;;;;;;;2.10;1.25;;;;;;;16.70;77.50;96807.88;6166001;23;20030;-78
2022/07/01 04:48:54;;;;;;;3.60;1.95;;;;;;;16.70;81.75;96802.63;6166685;23;20032;-78
2022/07/01 04:51:21;;;;;;;4.07;1.70;;;;;;;16.74;82.68;96816.97;6167780;23;20035;-78
2022/07/01 04:53:49;;;;;;;1.95;1.65;;;;;;;16.73;82.11;96819.84;6165344;23;20025;-77
2022/07/01 04:56:17;;;;;;;1.73;1.55;;;;;;;16.70;80.08;96821.06;6162005;23;20061;-78
2022/07/01 04:58:55;;;;;;;2.78;1.58;;;;;;;16.62;76.48;96827.41;6171438;23;20458;-79
2022/07/01 05:01:29;;;;;;;5.63;1.77;;;;;;;16.58;80.42;96830.69;6172999;23;20401;-74
2022/07/01 05:03:57;;;;;;;2.90;1.52;;;;;;;16.56;79.54;96851.16;6155874;23;20401;-75
2022/07/01 05:06:25;;;;;;;3.28;1.85;;;;;;;16.56;79.60;96851.97;6155212;23;20040;-74
2022/07/01 05:08:53;;;;;;;1.67;1.33;;;;;;;16.58;79.21;96851.75;6156049;23;20030;-74
2022/07/01 05:11:20;;;;;;;1.48;1.33;;;;;;;16.62;78.82;96847.69;6155836;23;20021;-74
2022/07/01 05:13:48;;;;;;;3.45;1.90;;;;;;;16.67;82.55;96842.56;6155484;23;20025;-74
2022/07/01 05:16:16;;;;;;;1.50;1.20;;;;;;;16.70;81.22;96842.13;6155133;23;20025;-74
2022/07/01 05:24:16;;;;;;;6.35;2.17;;;;;;;16.71;82.00;96838.50;6156232;23;20021;-74
2022/07/01 05:26:43;;;;;;;4.43;1.38;;;;;;;16.71;80.83;96843.75;6157218;23;20473;-74
2022/07/01 05:29:11;;;;;;;2.13;1.38;;;;;;;16.71;81.11;96838.50;6156854;23;20052;-74
2022/07/01 05:31:39;;;;;;;1.90;0.85;;;;;;;16.69;79.00;96845.78;6155699;23;20470;-74
2022/07/01 05:34:08;;;;;;;4.82;1.70;;;;;;;16.76;83.26;96849.19;6155840;23;20021;-74
2022/07/01 05:36:35;;;;;;;2.78;1.20;;;;;;;16.77;81.51;96858.72;6157114;23;20032;-77
2022/07/01 05:39:04;;;;;;;3.35;2.60;;;;;;;16.75;79.88;96857.28;6158276;23;20021;-78
2022/07/01 05:41:32;;;;;;;7.97;1.27;;;;;;;16.68;78.22;96859.97;6162055;23;20025;-78
2022/07/01 05:44:00;;;;;;;2.55;2.17;;;;;;;16.64;77.71;96869.34;6167712;23;20072;-79
2022/07/01 05:46:28;;;;;;;2.90;2.45;;;;;;;16.62;77.83;96876.66;6168912;23;20072;-77
2022/07/01 05:48:56;;;;;;;4.10;1.98;;;;;;;16.61;78.30;96875.03;6164674;23;20425;-78
2022/07/01 05:51:25;;;;;;;7.60;2.85;;;;;;;16.64;81.55;96879.88;6166300;23;20030;-78
2022/07/01 05:53:52;;;;;;;2.38;1.13;;;;;;;16.60;77.32;96876.84;6167018;23;20025;-78
2022/07/01 05:56:20;;;;;;;4.57;1.67;;;;;;;16.61;80.01;96875.03;6166305;23;20029;-79
2022/07/01 05:58:47;;;;;;;2.47;1.30;;;;;;;16.61;77.97;96877.66;6166322;23;20458;-78
2022/07/01 06:01:15;;;;;;;2.17;1.50;;;;;;;16.57;76.76;96879.91;6165771;23;20092;-80
2022/07/01 06:03:43;;;;;;;1.48;1.38;;;;;;;16.56;76.89;96878.28;6162987;23;20109;-77
2022/07/01 06:06:11;;;;;;;1.67;1.30;;;;;;;16.58;77.22;96886.78;6162625;23;20220;-77
2022/07/01 06:08:40;;;;;;;2.20;1.75;;;;;;;16.59;79.53;96877.06;6162635;23;20041;-78
2022/07/01 06:11:08;;;;;;;6.93;2.63;;;;;;;16.64;81.91;96874.63;6164342;23;20488;-78
2022/07/01 06:13:35;;;;;;;3.78;2.10;;;;;;;16.66;80.31;96888.34;6164595;23;20021;-77
2022/07/01 06:16:04;;;;;;;2.45;1.67;;;;;;;16.63;78.97;96886.16;6165627;23;20025;-77
2022/07/01 06:18:32;;;;;;;1.60;1.50;;;;;;;16.63;77.87;96883.53;6163537;23;20026;-76
2022/07/01 06:20:59;;;;;;;2.10;1.90;;;;;;;16.62;78.56;96871.38;6164802;23;20025;-79
2022/07/01 06:23:27;;;;;;;1.67;1.58;;;;;;;16.58;75.49;96876.25;6163928;23;20032;-78
2022/07/01 06:25:56;;;;;;;2.38;1.92;;;;;;;16.54;74.06;96887.44;6164455;23;20385;-77
2022/07/01 06:28:25;;;;;;;3.38;1.73;;;;;;;16.53;75.87;96888.44;6164574;23;20026;-78
2022/07/01 06:30:54;;;;;;;2.03;1.88;;;;;;;16.51;74.06;96882.56;6164001;23;20401;-77
2022/07/01 06:33:22;;;;;;;2.00;1.90;;;;;;;16.47;73.47;96875.13;6164282;23;20076;-77
2022/07/01 06:35:51;;;;;;;2.88;1.92;;;;;;;16.45;74.33;96877.16;6163252;23;20026;-78
2022/07/01 06:38:18;;;;;;;3.22;2.30;;;;;;;16.46;75.19;96877.94;6164137;23;20076;-78
2022/07/01 06:41:26;;;;;;;4.55;2.92;;;;;;;16.51;78.28;96872.03;6163356;23;20030;-78
2022/07/01 06:43:36;;;;;;;2.83;1.70;;;;;;;16.50;74.94;96873.06;6164631;23;20070;-77
2022/07/01 06:46:05;;;;;;;2.58;2.25;;;;;;;16.46;76.01;96877.94;6164592;23;20025;-77
2022/07/01 06:48:33;;;;;;;5.05;3.05;;;;;;;16.47;77.38;96887.47;6164524;23;20028;-80
2022/07/01 06:51:00;;;;;;;2.25;2.10;;;;;;;16.45;75.72;96892.94;6164130;23;20366;-78
2022/07/01 06:53:28;;;;;;;2.33;2.03;;;;;;;16.43;75.47;96894.97;6164378;23;20077;-79
2022/07/01 06:55:57;;;;;;;2.10;1.90;;;;;;;16.45;77.02;96903.47;6164976;23;20037;-76
2022/07/01 06:58:25;;;;;;;2.50;2.03;;;;;;;16.43;76.36;96894.97;6164434;23;20465;-77
2022/07/01 07:00:54;;;;;;;2.88;2.10;;;;;;;16.40;76.22;96898.03;6164605;23;20048;-78
2022/07/01 07:03:21;;;;;;;3.75;2.80;;;;;;;16.44;80.13;96901.88;6164086;23;20032;-78
2022/07/01 07:05:49;;;;;;;2.72;2.50;;;;;;;16.47;80.72;96890.09;6164489;23;20036;-78
2022/07/01 07:08:17;;;;;;;3.40;2.78;;;;;;;16.51;81.43;96895.75;6164530;23;20080;-79
2022/07/01 07:10:45;;;;;;;3.05;2.80;;;;;;;16.48;78.68;96895.13;6162963;23;20043;-81
2022/07/01 07:13:12;;;;;;;2.13;1.90;;;;;;;16.44;75.84;96896.63;6163561;23;20026;-80
2022/07/01 07:15:41;;;;;;;2.20;2.00;;;;;;;16.41;75.70;96904.91;6165871;23;20026;-77
2022/07/01 07:18:10;;;;;;;3.90;3.28;;;;;;;16.41;79.46;96912.00;6164923;23;20026;-78
2022/07/01 07:20:38;;;;;;;3.50;2.67;;;;;;;16.43;80.49;96918.69;6161776;23;20014;-77
2022/07/01 07:23:06;;;;;;;4.10;2.78;;;;;;;16.44;79.23;96927.38;6163273;23;20417;-78
2022/07/01 07:25:33;;;;;;;4.38;3.30;;;;;;;16.40;76.38;96926.22;6164664;23;20025;-80
2022/07/01 07:28:01;;;;;;;2.33;2.13;;;;;;;16.38;77.27;96929.03;6164199;23;20354;-79
2022/07/01 07:30:29;;;;;;;3.17;2.83;;;;;;;16.41;78.18;96933.88;6164266;23;20032;-79
2022/07/01 07:32:57;;;;;;;4.13;3.13;;;;;;;16.44;79.69;96944.00;6164449;23;20073;-79
2022/07/01 07:35:29;;;;;;;3.33;3.03;;;;;;;16.41;78.15;96936.50;6164706;23;20480;-78
2022/07/01 07:37:57;;;;;;;3.63;3.10;;;;;;;16.45;80.41;96927.19;6164322;23;20025;-77
2022/07/01 07:40:25;;;;;;;3.70;2.55;;;;;;;16.46;79.99;96933.25;6163319;23;20048;-77
2022/07/01 07:42:53;;;;;;;3.00;1.65;;;;;;;16.42;77.85;96950.47;6164526;23;20025;-79
2022/07/01 07:45:21;;;;;;;2.92;2.17;;;;;;;16.40;78.15;96961.22;6164844;23;20025;-78
2022/07/01 07:47:49;;;;;;;3.08;2.35;;;;;;;16.38;77.48;96975.63;6164512;23;20033;-79
2022/07/01 07:50:17;;;;;;;4.35;2.67;;;;;;;16.36;77.22;96978.47;6164789;23;20394;-79
2022/07/01 07:52:46;;;;;;;2.25;1.90;;;;;;;16.36;77.99;96970.56;6163995;23;20037;-77
2022/07/01 07:55:14;;;;;;;3.58;2.22;;;;;;;16.37;79.58;96964.28;6163647;23;20139;-79
2022/07/01 07:57:42;;;;;;;2.60;2.30;;;;;;;16.40;80.03;96963.88;6163745;23;20025;-80
2022/07/01 08:00:12;;;;;;;1.80;1.55;;;;;;;16.40;80.68;96968.34;6164602;23;20072;-79
2022/07/01 08:02:41;;;;;;;2.20;2.08;;;;;;;16.40;79.93;96969.13;6164353;23;20032;-79
2022/07/01 08:05:10;;;;;;;3.10;2.67;;;;;;;16.43;80.87;96968.69;6164418;23;20096;-77
2022/07/01 08:07:39;;;;;;;2.58;2.35;;;;;;;16.42;80.63;96977.63;6164899;23;20357;-81
2022/07/01 08:10:10;;;;;;;3.08;1.88;;;;;;;16.42;80.56;96980.28;6164195;23;20021;-78
2022/07/01 08:12:37;;;;;;;1.90;1.80;;;;;;;16.43;80.51;96981.88;6164159;23;20033;-78
2022/07/01 08:15:07;;;;;;;3.03;1.95;;;;;;;16.44;80.37;96982.66;6164878;23;20033;-78
2022/07/01 08:17:35;;;;;;;2.28;1.55;;;;;;;16.42;79.76;96984.69;6165197;23;20076;-81
2022/07/01 08:20:03;;;;;;;4.28;2.97;;;;;;;16.45;81.22;96987.72;6164000;23;20084;-77
2022/07/01 08:22:31;;;;;;;3.83;2.03;;;;;;;16.46;80.25;96994.63;6165845;23;20026;-77
2022/07/01 08:24:58;;;;;;;2.58;2.13;;;;;;;16.47;79.92;96996.22;6165321;23;20076;-78
2022/07/01 08:27:27;;;;;;;2.20;2.00;;;;;;;16.45;79.29;97000.09;6164684;23;20040;-80
2022/07/01 08:29:55;;;;;;;2.33;1.98;;;;;;;16.45;80.24;96990.38;6165905;23;20025;-77
2022/07/01 08:32:25;;;;;;;1.90;1.40;;;;;;;16.41;76.51;96981.28;6165722;23;20033;-78
2022/07/01 08:34:53;;;;;;;1.85;1.40;;;;;;;16.39;76.10;96991.19;6166366;23;20029;-78
2022/07/01 08:37:21;;;;;;;1.90;1.48;;;;;;;16.38;76.41;96992.22;6167185;23;20021;-79
2022/07/01 08:39:48;;;;;;;0.95;0.95;;;;;;;16.37;74.54;96987.97;6165960;23;20068;-78
2022/07/01 08:42:16;;;;;;;3.65;1.55;;;;;;;16.37;76.14;96977.44;6165794;23;20087;-81
2022/07/01 08:44:45;;;;;;;2.08;1.67;;;;;;;16.38;75.68;96983.53;6165085;23;20021;-79
2022/07/01 08:47:13;;;;;;;2.25;1.63;;;;;;;16.38;76.02;96984.34;6164766;23;20029;-80
2022/07/01 08:49:41;;;;;;;1.88;1.65;;;;;;;16.40;76.80;96986.75;6164675;23;20492;-78
2022/07/01 08:52:09;;;;;;;3.65;2.33;;;;;;;16.41;77.77;97002.34;6164779;23;20033;-81
2022/07/01 08:54:38;;;;;;;2.42;1.80;;;;;;;16.40;78.82;96999.94;6167541;23;20357;-78
2022/07/01 08:57:07;;;;;;;2.35;1.90;;;;;;;16.41;77.86;97004.97;6165877;23;20064;-79
2022/07/01 08:59:35;;;;;;;3.15;2.50;;;;;;;16.43;78.58;97000.31;6165246;23;20021;-80
2022/07/01 09:02:05;;;;;;;4.85;3.65;;;;;;;16.48;81.58;97003.09;6164547;23;20358;-80
2022/07/01 09:04:33;;;;;;;2.05;1.88;;;;;;;16.48;78.83;96995.19;6164801;23;20025;-78
2022/07/01 09:07:06;;;;;;;2.47;1.45;;;;;;;16.40;75.17;96992.84;6165684;23;20073;-78
2022/07/01 09:09:38;;;;;;;1.60;1.50;;;;;;;16.36;77.29;96994.25;6165932;23;20025;-80
2022/07/01 09:12:07;;;;;;;4.63;2.35;;;;;;;16.35;76.94;96999.72;6164269;23;20021;-77
2022/07/01 09:14:35;;;;;;;5.65;3.75;;;;;;;16.42;80.73;96988.16;6166000;23;20049;-77
2022/07/01 09:17:06;;;;;;;2.38;2.15;;;;;;;16.47;78.68;96984.91;6166552;23;20025;-79
2022/07/01 09:19:36;;;;;;;2.00;1.88;;;;;;;16.47;77.50;96987.53;6166649;23;20057;-78
2022/07/01 09:22:11;;;;;;;2.17;1.75;;;;;;;16.45;76.87;96986.94;6166758;23;20454;-79
2022/07/01 09:24:41;;;;;;;5.90;3.80;;;;;;;16.46;79.29;96984.09;6166794;23;20021;-77
2022/07/01 09:27:13;;;;;;;1.88;1.77;;;;;;;16.46;78.38;96994.63;6166817;23;20026;-79
2022/07/01 09:29:43;;;;;;;1.70;1.40;;;;;;;16.44;77.58;96996.66;6167288;23;20017;-80
2022/07/01 09:32:13;;;;;;;2.00;1.80;;;;;;;16.44;78.21;97001.09;6163973;23;20025;-78
2022/07/01 09:34:43;;;;;;;4.45;2.92;;;;;;;16.50;79.71;97012.63;6165522;23;20018;-78
2022/07/01 09:37:13;;;;;;;1.50;1.40;;;;;;;16.44;76.89;97012.47;6165610;23;20505;-77
2022/07/01 09:39:45;;;;;;;6.90;3.47;;;;;;;16.46;78.01;97014.88;6165920;23;20036;-78
2022/07/01 09:42:13;;;;;;;7.43;3.25;;;;;;;16.48;79.83;97018.91;6164621;23;20049;-75
2022/07/01 09:45:06;;;;;;;3.25;2.35;;;;;;;16.52;81.76;97029.03;6165814;23;20026;-77
2022/07/01 09:47:37;;;;;;;2.22;1.75;;;;;;;16.52;80.91;97031.66;6161253;23;20092;-78
2022/07/01 09:50:06;;;;;;;3.35;2.72;;;;;;;16.55;82.08;97039.16;6169553;23;20053;-78
2022/07/01 09:52:35;;;;;;;3.20;2.90;;;;;;;16.58;80.84;97038.75;6170426;23;20017;-79
2022/07/01 09:55:05;;;;;;;2.00;1.90;;;;;;;16.52;78.31;97043.00;6164756;23;20028;-79
2022/07/01 09:57:32;;;;;;;2.50;2.30;;;;;;;16.51;78.32;97048.47;6169455;23;20053;-80
2022/07/01 10:00:00;;;;;;;2.50;2.10;;;;;;;16.52;78.89;97050.09;6168591;23;20025;-78
2022/07/01 10:02:30;;;;;;;5.78;3.40;;;;;;;16.56;80.55;97052.09;6168805;23;20049;-78
2022/07/01 10:05:03;;;;;;;2.53;1.40;;;;;;;16.54;78.27;97048.06;6168631;23;20030;-79
2022/07/01 10:07:42;;;;;;;4.25;2.60;;;;;;;16.53;77.82;97055.16;6163942;23;20025;-78
2022/07/01 10:10:24;;;;;;;2.30;2.10;;;;;;;16.54;78.55;97062.03;6168042;23;20026;-80
2022/07/01 10:12:53;;;;;;;2.58;2.10;;;;;;;16.48;77.46;97063.66;6164434;23;20053;-77
2022/07/01 10:15:23;;;;;;;2.33;1.70;;;;;;;16.42;75.58;97061.88;6164706;23;20025;-76
2022/07/01 10:17:52;;;;;;;1.80;1.70;;;;;;;16.41;76.27;97060.25;6164119;23;20056;-77
2022/07/01 10:20:25;;;;;;;1.80;1.70;;;;;;;16.40;75.23;97047.31;6164668;23;20025;-77
2022/07/01 10:23:00;;;;;;;;;;;;;;;16.42;76.23;97054.00;6165109;23;20389;-77
2022/07/01 10:25:40;;;;;;;3.42;2.00;;;;;;;16.35;76.19;97058.44;6164717;23;19920;-79
2022/07/01 10:28:26;;;;;;;2.28;1.80;;;;;;;16.30;77.65;97058.28;6165809;23;20060;-81
2022/07/01 10:30:56;;;;;;;6.60;3.40;;;;;;;16.32;77.52;97061.50;6168935;23;20025;-81
2022/07/01 10:33:42;;;;;;;1.92;1.80;;;;;;;16.29;74.70;97059.28;6170149;23;20018;-77
2022/07/01 10:36:15;;;;;;;2.65;1.70;;;;;;;16.22;73.75;97059.31;6161029;23;20052;-77
2022/07/01 10:39:22;;;;;;;2.60;1.95;;;;;;;16.18;74.18;97071.25;6166731;23;20026;-78
2022/07/01 10:41:58;;;;;;;11.30;6.03;;;;;;;16.24;81.67;97073.06;6046328;23;20590;-79
2022/07/01 10:45:07;;;;;;;2.67;2.22;;;;;;;16.25;75.47;97063.34;6045762;23;20077;-79
2022/07/01 10:47:35;;;;;;;4.97;2.70;;;;;;;16.20;76.81;97068.41;6145071;23;20033;-78
2022/07/01 10:50:15;;;;;;;2.00;1.90;;;;;;;16.15;74.36;97068.22;6165109;23;20052;-79
2022/07/01 10:53:01;;;;;;;2.42;2.22;;;;;;;16.15;77.77;97084.00;6165158;23;20088;-79
2022/07/01 10:55:39;;;;;;;4.68;2.67;;;;;;;16.18;77.52;97084.44;6165279;23;20036;-79
2022/07/01 10:58:07;;;;;;;6.82;4.47;;;;;;;16.28;80.67;97087.41;6166382;23;20025;-77
2022/07/01 11:00:36;;;;;;;2.35;2.15;;;;;;;16.31;78.04;97101.19;6165944;23;20025;-78
2022/07/01 11:03:13;;;;;;;2.90;2.42;;;;;;;16.28;78.59;97097.94;6166476;23;20028;-78
2022/07/01 11:05:43;;;;;;;2.42;2.22;;;;;;;16.27;76.37;97101.63;6164260;23;20025;-78
2022/07/01 11:08:12;;;;;;;4.35;3.25;;;;;;;16.31;79.55;97098.56;6165656;23;20021;-80
2022/07/01 11:10:52;;;;;;;9.30;4.63;;;;;;;16.34;82.42;97095.53;6163846;23;20025;-78
2022/07/01 11:13:20;;;;;;;12.48;5.70;;;;;;;16.41;84.23;97081.31;6165582;23;20358;-77
2022/07/01 11:15:48;;;;;;;2.30;2.10;;;;;;;16.37;79.24;97074.84;6164783;23;20021;-76
2022/07/01 11:18:17;;;;;;;2.47;2.28;;;;;;;16.30;77.50;97092.50;6164625;23;20121;-76
2022/07/01 11:20:45;;;;;;;3.50;2.83;;;;;;;16.31;79.60;97098.56;6164488;23;20026;-78
2022/07/01 11:23:16;;;;;;;3.97;2.72;;;;;;;16.30;78.09;97092.50;6164121;23;20018;-77
2022/07/01 11:25:44;;;;;;;2.13;1.90;;;;;;;16.28;76.40;97097.16;6165904;23;20021;-76
2022/07/01 11:28:12;;;;;;;2.40;2.15;;;;;;;16.25;76.72;97103.63;6163803;23;20025;-81
2022/07/01 11:30:40;;;;;;;5.28;3.00;;;;;;;16.31;79.75;97111.72;6163639;23;20029;-76
2022/07/01 11:33:09;;;;;;;2.35;2.00;;;;;;;16.34;80.30;97095.53;6165390;23;20022;-78
2022/07/01 11:41:19;;;;;;;2.08;1.90;;;;;;;16.39;78.42;97067.56;6160003;23;20018;-79
2022/07/01 11:43:47;;;;;;;2.63;2.40;;;;;;;16.43;81.69;97068.75;6155371;23;20032;-79
2022/07/01 11:46:15;;;;;;;5.28;3.47;;;;;;;16.47;83.21;97085.75;6155385;23;20021;-79
2022/07/01 11:48:44;;;;;;;9.63;4.25;;;;;;;16.54;85.52;97075.22;6154727;23;20133;-79
2022/07/01 11:51:13;;;;;;;2.75;1.92;;;;;;;16.52;80.25;97081.72;6154941;23;20033;-79
2022/07/01 11:53:44;;;;;;;4.65;3.35;;;;;;;16.49;82.74;97088.19;6155660;23;20082;-79
2022/07/01 11:56:12;;;;;;;4.47;3.17;;;;;;;16.48;82.65;97112.91;6157330;23;20029;-79
2022/07/01 11:58:45;;;;;;;2.90;2.50;;;;;;;16.54;83.78;97111.28;6157100;23;20084;-79
2022/07/01 12:01:21;;;;;;;5.07;3.60;;;;;;;16.52;83.80;97108.03;6156402;23;20029;-79